createdAt,value
2023-04-16T00:00:09.955Z,99631.91
2023-04-16T00:03:12.191Z,99634.47
2023-04-16T00:06:14.493Z,99625.66
2023-04-16T00:09:16.508Z,99630.66
2023-04-16T00:12:18.508Z,99636.66
2023-04-16T00:15:20.479Z,99634.03
2023-04-16T00:18:22.495Z,99636.25
2023-04-16T00:21:24.441Z,99637.44
2023-04-16T00:24:26.485Z,99644.66
2023-04-16T00:27:28.374Z,99637.78
2023-04-16T00:30:30.661Z,99639.72
2023-04-16T00:33:32.783Z,99639.72
2023-04-16T00:36:34.842Z,99645.84
2023-04-16T00:39:37.406Z,99644.81
2023-04-16T00:42:39.391Z,99639.56
2023-04-16T00:45:41.399Z,99639.56
2023-04-16T00:48:44.778Z,99645.66
2023-04-16T00:51:46.748Z,99640.50
2023-04-16T00:54:49.161Z,99641.00
2023-04-16T00:57:51.097Z,99643.72
2023-04-16T01:00:53.078Z,99645.50
2023-04-16T01:03:55.247Z,99649.75
2023-04-16T01:06:57.278Z,99651.69
2023-04-16T01:09:59.608Z,99654.41
2023-04-16T01:13:01.888Z,99642.53
2023-04-16T01:16:04.030Z,99645.06
2023-04-16T01:19:06.025Z,99653.97
2023-04-16T01:22:08.137Z,99650.41
2023-04-16T01:25:14.705Z,99641.84
2023-04-16T01:28:16.711Z,99648.03
2023-04-16T01:31:18.706Z,99647.34
2023-04-16T01:34:20.796Z,99642.84
2023-04-16T01:37:22.728Z,99639.38
2023-04-16T01:40:24.621Z,99632.09
2023-04-16T01:43:26.742Z,99639.97
2023-04-16T01:46:31.156Z,99630.22
2023-04-16T01:49:33.927Z,99639.03
2023-04-16T01:52:35.919Z,99632.09
2023-04-16T01:55:37.852Z,99631.31
2023-04-16T01:58:41.452Z,99618.50
2023-04-16T02:01:43.723Z,99624.53
2023-04-16T02:04:46.471Z,99627.16
2023-04-16T02:07:48.392Z,99626.22
2023-04-16T02:10:51.227Z,99630.63
2023-04-16T02:13:53.209Z,99625.38
2023-04-16T02:16:55.474Z,99621.97
2023-04-16T02:19:57.508Z,99619.44
2023-04-16T02:22:59.479Z,99614.53
2023-04-16T02:26:03.520Z,99630.28
2023-04-16T02:29:06.091Z,99622.25
2023-04-16T02:32:08.278Z,99632.91
2023-04-16T02:35:10.530Z,99630.34
2023-04-16T02:38:12.553Z,99634.84
2023-04-16T02:41:14.566Z,99632.28
2023-04-16T02:44:16.556Z,99635.94
2023-04-16T02:47:18.401Z,99628.66
2023-04-16T02:50:20.671Z,99633.06
2023-04-16T02:53:22.688Z,99640.19
2023-04-16T02:56:24.700Z,99647.12
2023-04-16T02:59:27.156Z,99639.34
2023-04-16T03:02:29.126Z,99647.91
2023-04-16T03:05:31.048Z,99653.25
2023-04-16T03:08:32.964Z,99658.41
2023-04-16T03:11:34.925Z,99662.88
2023-04-16T03:14:36.858Z,99661.12
2023-04-16T03:17:38.917Z,99668.22
2023-04-16T03:20:41.148Z,99666.53
2023-04-16T03:23:43.225Z,99665.50
2023-04-16T03:26:45.175Z,99670.06
2023-04-16T03:29:47.136Z,99676.00
2023-04-16T03:32:49.084Z,99677.72
2023-04-16T03:35:58.475Z,99678.63
2023-04-16T03:39:01.104Z,99688.13
2023-04-16T03:42:03.695Z,99684.66
2023-04-16T03:45:06.320Z,99689.94
2023-04-16T03:48:08.277Z,99694.34
2023-04-16T03:51:10.237Z,99692.72
2023-04-16T03:54:12.486Z,99696.13
2023-04-16T03:57:14.397Z,99699.66
2023-04-16T04:00:16.552Z,99702.28
2023-04-16T04:03:19.092Z,99705.78
2023-04-16T04:06:21.232Z,99712.88
2023-04-16T04:09:23.366Z,99713.72
2023-04-16T04:12:25.237Z,99711.87
2023-04-16T04:15:27.153Z,99707.62
2023-04-16T04:18:29.149Z,99711.87
2023-04-16T04:21:31.829Z,99718.13
2023-04-16T04:24:34.055Z,99714.66
2023-04-16T04:27:36.464Z,99723.44
2023-04-16T04:30:38.408Z,99725.00
2023-04-16T04:33:40.505Z,99725.91
2023-04-16T04:36:42.357Z,99737.47
2023-04-16T04:39:44.810Z,99736.59
2023-04-16T04:42:46.825Z,99737.38
2023-04-16T04:45:49.536Z,99735.28
2023-04-16T04:48:51.593Z,99736.97
2023-04-16T04:51:53.738Z,99725.44
2023-04-16T04:54:56.406Z,99727.84
2023-04-16T04:57:58.366Z,99730.38
2023-04-16T05:01:00.366Z,99736.75
2023-04-16T05:04:02.535Z,99733.94
2023-04-16T05:07:04.460Z,99749.25
2023-04-16T05:10:07.068Z,99752.78
2023-04-16T05:13:09.404Z,99758.75
2023-04-16T05:16:11.312Z,99758.44
2023-04-16T05:19:13.647Z,99768.00
2023-04-16T05:22:18.939Z,99770.38
2023-04-16T05:25:21.137Z,99764.72
2023-04-16T05:28:23.042Z,99773.37
2023-04-16T05:31:25.030Z,99757.44
2023-04-16T05:34:27.015Z,99770.03
2023-04-16T05:37:28.954Z,99771.28
2023-04-16T05:40:31.863Z,99772.91
2023-04-16T05:43:33.834Z,99778.00
2023-04-16T05:46:35.961Z,99782.16
2023-04-16T05:49:38.008Z,99784.03
2023-04-16T05:52:39.976Z,99795.00
2023-04-16T05:55:41.949Z,99795.59
2023-04-16T05:58:43.845Z,99793.66
2023-04-16T06:01:46.457Z,99795.44
2023-04-16T06:04:49.783Z,99790.25
2023-04-16T06:07:51.696Z,99803.22
2023-04-16T06:10:53.937Z,99814.69
2023-04-16T06:13:55.942Z,99810.28
2023-04-16T06:16:57.922Z,99806.62
2023-04-16T06:19:59.864Z,99810.03
2023-04-16T06:23:01.917Z,99814.38
2023-04-16T06:26:04.669Z,99819.63
2023-04-16T06:29:06.711Z,99820.41
2023-04-16T06:32:09.033Z,99816.81
2023-04-16T06:35:10.997Z,99819.28
2023-04-16T06:38:13.150Z,99817.78
2023-04-16T06:41:15.438Z,99812.25
2023-04-16T06:44:19.090Z,99804.84
2023-04-16T06:47:21.507Z,99806.53
2023-04-16T06:50:23.651Z,99808.25
2023-04-16T06:53:25.890Z,99801.88
2023-04-16T06:56:28.012Z,99801.28
2023-04-16T06:59:30.170Z,99804.84
2023-04-16T07:02:32.364Z,99809.09
2023-04-16T07:05:34.557Z,99807.09
2023-04-16T07:08:36.624Z,99816.22
2023-04-16T07:11:38.819Z,99814.09
2023-04-16T07:14:41.588Z,99811.56
2023-04-16T07:17:43.544Z,99818.13
2023-04-16T07:20:45.625Z,99826.09
2023-04-16T07:23:48.373Z,99832.38
2023-04-16T07:26:50.389Z,99830.41
2023-04-16T07:29:52.452Z,99829.31
2023-04-16T07:32:55.863Z,99835.59
2023-04-16T07:35:57.901Z,99840.87
2023-04-16T07:38:59.855Z,99837.72
2023-04-16T07:42:02.262Z,99839.34
2023-04-16T07:45:04.568Z,99840.34
2023-04-16T07:48:06.707Z,99838.50
2023-04-16T07:51:08.760Z,99849.09
2023-04-16T07:54:11.113Z,99847.63
2023-04-16T07:57:13.097Z,99846.88
2023-04-16T08:00:15.703Z,99843.63
2023-04-16T08:06:20.056Z,99863.91
2023-04-16T08:09:23.984Z,99872.06
2023-04-16T08:12:26.279Z,99861.69
2023-04-16T08:15:28.278Z,99868.22
2023-04-16T08:18:30.763Z,99857.53
2023-04-16T08:21:34.000Z,99863.22
2023-04-16T08:24:35.946Z,99862.06
2023-04-16T08:27:38.298Z,99870.19
2023-04-16T08:30:40.495Z,99865.00
2023-04-16T08:33:42.460Z,99868.41
2023-04-16T08:36:44.426Z,99865.09
2023-04-16T08:39:46.624Z,99870.09
2023-04-16T08:42:53.941Z,99864.78
2023-04-16T08:45:57.077Z,99875.97
2023-04-16T08:49:01.166Z,99888.19
2023-04-16T08:52:06.839Z,99887.19
2023-04-16T08:55:16.958Z,99891.78
2023-04-16T08:58:21.143Z,99895.09
2023-04-16T09:01:26.699Z,99905.59
2023-04-16T09:04:29.283Z,99909.87
2023-04-16T09:07:33.622Z,99916.87
2023-04-16T09:10:35.602Z,99928.28
2023-04-16T09:13:38.315Z,99933.88
2023-04-16T09:16:41.329Z,99940.97
2023-04-16T09:19:43.367Z,99941.28
2023-04-16T09:22:46.577Z,99936.81
2023-04-16T09:25:48.559Z,99935.88
2023-04-16T09:28:53.013Z,99938.28
2023-04-16T09:32:06.349Z,99945.06
2023-04-16T09:35:08.753Z,99946.78
2023-04-16T09:38:10.750Z,99942.97
2023-04-16T09:41:13.712Z,99946.75
2023-04-16T09:44:15.919Z,99942.53
2023-04-16T09:47:17.893Z,99946.53
2023-04-16T09:50:20.722Z,99939.75
2023-04-16T09:53:30.299Z,99932.94
2023-04-16T09:56:32.209Z,99925.37
2023-04-16T09:59:36.257Z,99924.78
2023-04-16T10:02:42.687Z,99922.13
2023-04-16T10:05:44.926Z,99922.56
2023-04-16T10:08:49.584Z,99927.22
2023-04-16T10:11:52.235Z,99942.03
2023-04-16T10:14:54.150Z,99936.78
2023-04-16T10:17:57.390Z,99934.97
2023-04-16T10:21:00.442Z,99933.56
2023-04-16T10:24:03.156Z,99923.81
2023-04-16T10:27:05.174Z,99918.81
2023-04-16T10:30:09.159Z,99917.09
2023-04-16T10:33:12.258Z,99910.13
2023-04-16T10:36:23.589Z,99919.63
2023-04-16T10:39:28.996Z,99912.19
2023-04-16T10:42:31.755Z,99904.94
2023-04-16T10:45:38.657Z,99906.69
2023-04-16T10:48:49.583Z,99908.94
2023-04-16T10:51:54.845Z,99904.06
2023-04-16T10:54:59.896Z,99898.59
2023-04-16T10:58:02.144Z,99899.44
2023-04-16T11:01:34.215Z,99901.63
2023-04-16T11:04:38.476Z,99905.84
2023-04-16T11:07:49.405Z,99915.19
2023-04-16T11:10:51.955Z,99907.34
2023-04-16T11:13:56.453Z,99918.56
2023-04-16T11:16:58.457Z,99919.22
2023-04-16T11:20:01.435Z,99917.97
2023-04-16T11:23:03.883Z,99917.53
2023-04-16T11:26:06.128Z,99910.88
2023-04-16T11:29:15.651Z,99903.44
2023-04-16T11:32:21.989Z,99908.41
2023-04-16T11:35:24.075Z,99906.25
2023-04-16T11:38:37.360Z,99909.94
2023-04-16T11:41:47.545Z,99911.19
2023-04-16T11:44:56.534Z,99913.88
2023-04-16T11:47:58.556Z,99909.63
2023-04-16T11:51:00.628Z,99908.38
2023-04-16T11:54:02.691Z,99912.63
2023-04-16T11:57:05.109Z,99910.28
2023-04-16T12:00:11.421Z,99902.97
2023-04-16T12:03:13.662Z,99908.00
2023-04-16T12:06:16.102Z,99910.91
2023-04-16T12:09:26.098Z,99918.00
2023-04-16T12:12:33.895Z,99912.63
2023-04-16T12:15:56.858Z,99914.41
2023-04-16T12:19:01.368Z,99911.97
2023-04-16T12:22:03.353Z,99902.91
2023-04-16T12:25:07.724Z,99900.09
2023-04-16T12:28:10.104Z,99897.00
2023-04-16T12:31:12.692Z,99893.97
2023-04-16T12:34:17.980Z,99892.34
2023-04-16T12:37:19.986Z,99889.31
2023-04-16T12:40:21.884Z,99895.06
2023-04-16T12:43:24.105Z,99890.47
2023-04-16T12:46:26.189Z,99887.37
2023-04-16T12:49:28.168Z,99876.12
2023-04-16T12:52:30.318Z,99884.06
2023-04-16T12:55:32.385Z,99878.03
2023-04-16T12:58:34.737Z,99881.03
2023-04-16T13:01:37.353Z,99882.72
2023-04-16T13:04:39.953Z,99878.53
2023-04-16T13:07:42.249Z,99878.16
2023-04-16T13:10:44.303Z,99874.38
2023-04-16T13:13:46.458Z,99880.59
2023-04-16T13:16:48.373Z,99876.72
2023-04-16T13:19:50.505Z,99877.50
2023-04-16T13:22:52.775Z,99877.81
2023-04-16T13:25:54.874Z,99877.53
2023-04-16T13:28:57.330Z,99876.41
2023-04-16T13:31:59.636Z,99880.91
2023-04-16T13:35:01.697Z,99871.31
2023-04-16T13:38:04.782Z,99872.19
2023-04-16T13:41:07.341Z,99875.00
2023-04-16T13:44:09.860Z,99877.97
2023-04-16T13:47:12.143Z,99870.22
2023-04-16T13:50:14.190Z,99881.03
2023-04-16T13:53:16.618Z,99877.09
2023-04-16T13:56:18.806Z,99883.31
2023-04-16T13:59:21.896Z,99875.97
2023-04-16T14:02:26.512Z,99884.91
2023-04-16T14:05:28.904Z,99893.66
2023-04-16T14:08:31.616Z,99891.97
2023-04-16T14:11:34.290Z,99897.34
2023-04-16T14:14:37.875Z,99896.50
2023-04-16T14:17:40.129Z,99888.88
2023-04-16T14:20:42.290Z,99891.59
2023-04-16T14:23:44.357Z,99890.66
2023-04-16T14:26:46.400Z,99894.34
2023-04-16T14:29:48.825Z,99889.59
2023-04-16T14:32:51.237Z,99890.47
2023-04-16T14:35:53.431Z,99884.91
2023-04-16T14:38:55.620Z,99874.94
2023-04-16T14:41:58.005Z,99871.44
2023-04-16T14:45:00.530Z,99866.56
2023-04-16T14:48:02.697Z,99861.09
2023-04-16T14:51:04.664Z,99861.28
2023-04-16T14:54:07.627Z,99858.06
2023-04-16T14:57:09.641Z,99865.00
2023-04-16T15:00:13.408Z,99856.37
2023-04-16T15:03:16.281Z,99867.28
2023-04-16T15:06:20.718Z,99862.94
2023-04-16T15:09:22.729Z,99856.25
2023-04-16T15:12:26.217Z,99867.47
2023-04-16T15:15:28.867Z,99860.66
2023-04-16T15:18:32.023Z,99864.34
2023-04-16T15:21:34.620Z,99864.44
2023-04-16T15:24:37.988Z,99871.03
2023-04-16T15:27:40.290Z,99872.28
2023-04-16T15:30:43.537Z,99879.31
2023-04-16T15:33:45.677Z,99877.91
2023-04-16T15:36:48.059Z,99874.69
2023-04-16T15:39:50.291Z,99872.41
2023-04-16T15:42:52.542Z,99876.94
2023-04-16T15:45:55.440Z,99877.78
2023-04-16T15:49:05.773Z,99877.84
2023-04-16T15:52:08.126Z,99883.31
2023-04-16T15:55:10.417Z,99887.91
2023-04-16T15:58:13.374Z,99888.03
2023-04-16T16:01:15.643Z,99882.16
2023-04-16T16:04:17.889Z,99881.91
2023-04-16T16:07:21.040Z,99875.19
2023-04-16T16:10:23.469Z,99880.38
2023-04-16T16:13:26.210Z,99882.34
2023-04-16T16:16:28.714Z,99886.84
2023-04-16T16:19:33.166Z,99884.31
2023-04-16T16:22:36.577Z,99888.13
2023-04-16T16:25:39.964Z,99883.88
2023-04-16T16:28:44.363Z,99888.97
2023-04-16T16:31:47.141Z,99884.66
2023-04-16T16:34:50.028Z,99895.37
2023-04-16T16:37:58.138Z,99884.84
2023-04-16T16:41:00.592Z,99885.59
2023-04-16T16:44:03.658Z,99889.75
2023-04-16T16:47:06.887Z,99884.59
2023-04-16T16:50:11.723Z,99881.06
2023-04-16T16:53:14.774Z,99888.91
2023-04-16T16:56:17.381Z,99883.88
2023-04-16T16:59:19.824Z,99885.78
2023-04-16T17:02:22.208Z,99882.19
2023-04-16T17:05:25.666Z,99887.72
2023-04-16T17:08:29.398Z,99880.06
2023-04-16T17:11:31.821Z,99886.63
2023-04-16T17:14:35.933Z,99885.84
2023-04-16T17:17:38.383Z,99886.97
2023-04-16T17:20:41.622Z,99894.09
2023-04-16T17:23:45.105Z,99891.72
2023-04-16T17:26:47.692Z,99893.53
2023-04-16T17:29:50.275Z,99897.28
2023-04-16T17:32:52.848Z,99896.41
2023-04-16T17:35:55.483Z,99895.56
2023-04-16T17:38:59.101Z,99902.72
2023-04-16T17:42:03.654Z,99904.56
2023-04-16T17:45:06.271Z,99908.22
2023-04-16T17:48:09.569Z,99902.09
2023-04-16T17:51:12.902Z,99908.31
2023-04-16T17:54:15.913Z,99914.50
2023-04-16T17:57:18.171Z,99922.50
2023-04-16T18:00:20.549Z,99911.88
2023-04-16T18:03:23.307Z,99932.09
2023-04-16T18:06:26.913Z,99925.13
2023-04-16T18:09:32.717Z,99928.62
2023-04-16T18:12:35.708Z,99925.97
2023-04-16T18:15:38.626Z,99924.13
2023-04-16T18:18:41.612Z,99930.25
2023-04-16T18:21:45.526Z,99928.44
2023-04-16T18:24:50.065Z,99934.56
2023-04-16T18:27:53.891Z,99929.41
2023-04-16T18:30:59.160Z,99934.81
2023-04-16T18:34:02.085Z,99944.41
2023-04-16T18:37:05.057Z,99939.16
2023-04-16T18:40:09.616Z,99941.94
2023-04-16T18:43:12.590Z,99941.78
2023-04-16T18:46:15.734Z,99947.00
2023-04-16T18:49:18.562Z,99949.63
2023-04-16T18:52:22.191Z,99952.31
2023-04-16T18:55:25.705Z,99956.66
2023-04-16T18:58:28.641Z,99950.53
2023-04-16T19:01:32.083Z,99955.91
2023-04-16T19:04:34.658Z,99957.53
2023-04-16T19:07:38.080Z,99962.00
2023-04-16T19:10:40.991Z,99964.53
2023-04-16T19:13:45.731Z,99950.53
2023-04-16T19:16:50.375Z,99953.94
2023-04-16T19:19:53.709Z,99952.25
2023-04-16T19:22:56.642Z,99951.38
2023-04-16T19:25:59.802Z,99948.91
2023-04-16T19:29:03.158Z,99953.00
2023-04-16T19:32:06.503Z,99947.00
2023-04-16T19:35:09.411Z,99950.47
2023-04-16T19:38:12.275Z,99948.69
2023-04-16T19:41:14.797Z,99944.34
2023-04-16T19:44:17.207Z,99946.03
2023-04-16T19:47:20.745Z,99943.47
2023-04-16T19:50:23.953Z,99937.53
2023-04-16T19:53:26.512Z,99941.63
2023-04-16T19:56:30.971Z,99934.50
2023-04-16T19:59:34.656Z,99929.97
2023-04-16T20:02:38.366Z,99922.06
2023-04-16T20:05:41.505Z,99922.75
2023-04-16T20:08:45.420Z,99927.16
2023-04-16T20:11:48.369Z,99920.38
2023-04-16T20:14:51.858Z,99923.97
2023-04-16T20:17:55.945Z,99924.87
2023-04-16T20:20:58.144Z,99915.44
2023-04-16T20:24:00.619Z,99922.50
2023-04-16T20:27:03.003Z,99921.72
2023-04-16T20:30:06.436Z,99925.31
2023-04-16T20:33:09.558Z,99918.53
2023-04-16T20:36:12.066Z,99934.38
2023-04-16T20:39:14.016Z,99931.91
2023-04-16T20:42:16.363Z,99926.47
2023-04-16T20:45:18.771Z,99922.50
2023-04-16T20:48:21.369Z,99922.31
2023-04-16T20:51:23.405Z,99918.00
2023-04-16T20:54:25.654Z,99917.22
2023-04-16T20:57:29.555Z,99916.28
2023-04-16T21:00:31.674Z,99920.53
2023-04-16T21:03:33.999Z,99912.63
2023-04-16T21:06:38.525Z,99911.63
2023-04-16T21:09:40.586Z,99909.66
2023-04-16T21:12:42.803Z,99898.28
2023-04-16T21:15:45.700Z,99895.56
2023-04-16T21:18:48.040Z,99889.38
2023-04-16T21:21:50.172Z,99883.06
2023-04-16T21:24:52.036Z,99879.59
2023-04-16T21:27:54.250Z,99879.69
2023-04-16T21:30:56.333Z,99874.75
2023-04-16T21:33:58.322Z,99878.06
2023-04-16T21:37:00.468Z,99870.34
2023-04-16T21:40:04.946Z,99876.72
2023-04-16T21:43:06.959Z,99865.41
2023-04-16T21:46:08.825Z,99874.25
2023-04-16T21:49:11.142Z,99875.16
2023-04-16T21:52:18.372Z,99879.53
2023-04-16T21:55:20.742Z,99877.91
2023-04-16T21:58:22.732Z,99878.84
2023-04-16T22:01:24.770Z,99876.22
2023-04-16T22:04:26.787Z,99885.03
2023-04-16T22:07:29.025Z,99885.97
2023-04-16T22:10:31.244Z,99879.84
2023-04-16T22:13:33.149Z,99885.19
2023-04-16T22:16:36.028Z,99885.13
2023-04-16T22:19:39.328Z,99895.66
2023-04-16T22:22:42.309Z,99888.44
2023-04-16T22:25:44.344Z,99892.00
2023-04-16T22:28:46.696Z,99883.16
2023-04-16T22:31:48.703Z,99883.00
2023-04-16T22:34:50.689Z,99882.16
2023-04-16T22:37:52.718Z,99879.41
2023-04-16T22:40:54.623Z,99874.25
2023-04-16T22:43:56.584Z,99883.78
2023-04-16T22:46:58.470Z,99889.03
2023-04-16T22:50:00.633Z,99876.63
2023-04-16T22:53:02.604Z,99888.88
2023-04-16T22:56:04.938Z,99859.81
2023-04-16T22:59:07.405Z,99875.59
2023-04-16T23:02:09.506Z,99875.50
2023-04-16T23:05:11.979Z,99874.09
2023-04-16T23:08:14.092Z,99861.59
2023-04-16T23:11:16.090Z,99857.75
2023-04-16T23:14:18.109Z,99852.50
2023-04-16T23:17:19.981Z,99848.97
2023-04-16T23:20:21.888Z,99840.91
2023-04-16T23:23:23.919Z,99831.31
2023-04-16T23:26:26.075Z,99829.47
2023-04-16T23:29:28.295Z,99832.16
2023-04-16T23:32:30.388Z,99827.72
2023-04-16T23:35:32.398Z,99830.47
2023-04-16T23:38:34.640Z,99827.06
2023-04-16T23:41:36.523Z,99816.69
2023-04-16T23:44:39.082Z,99822.31
2023-04-16T23:47:41.104Z,99819.00
2023-04-16T23:50:43.049Z,99820.13
2023-04-16T23:53:45.024Z,99822.94
2023-04-16T23:56:47.245Z,99813.34
2023-04-16T23:59:49.242Z,99811.56
